GSAJM EGHH-EGGW
Flight info
| Callsign | GSAJM |
|---|---|
| Flight time | N/A |
| Altitude | 2000 |
| Route | VFR |
| Aircraft | DA42/L-SBDGRY/S |
Departure
| Time | 2026-05-05 18:43 |
|---|---|
| Airport | Bournemouth Airport (EGHH) |
Arrival
| Time | N/A |
|---|---|
| Airport | London Luton Airport (EGGW) |
| Time | Latitude | Longitude | Altitude | Speed | Heading |
|---|---|---|---|---|---|
| 2026-05-05 18:19 | 50.78059 | -1.82864 | 37 ft | 0 kts | 349° |
| 2026-05-05 18:33 | 50.78064 | -1.82858 | 37 ft | 5 kts | 57° |
| 2026-05-05 18:33 | 50.78125 | -1.82849 | 37 ft | 12 kts | 302° |
| 2026-05-05 18:33 | 50.78118 | -1.82965 | 38 ft | 12 kts | 272° |
| 2026-05-05 18:33 | 50.78116 | -1.83112 | 38 ft | 16 kts | 246° |
| 2026-05-05 18:34 | 50.78045 | -1.83283 | 38 ft | 21 kts | 245° |
| 2026-05-05 18:34 | 50.77973 | -1.83474 | 38 ft | 20 kts | 210° |
| 2026-05-05 18:34 | 50.77832 | -1.83466 | 39 ft | 22 kts | 178° |
| 2026-05-05 18:34 | 50.77675 | -1.83472 | 39 ft | 23 kts | 186° |
| 2026-05-05 18:35 | 50.77596 | -1.83506 | 39 ft | 0 kts | 239° |
| 2026-05-05 18:35 | 50.77595 | -1.83508 | 39 ft | 3 kts | 238° |
| 2026-05-05 18:36 | 50.77574 | -1.83626 | 39 ft | 18 kts | 279° |
| 2026-05-05 18:36 | 50.77583 | -1.83833 | 39 ft | 20 kts | 278° |
| 2026-05-05 18:36 | 50.77611 | -1.84046 | 40 ft | 20 kts | 284° |
| 2026-05-05 18:36 | 50.77649 | -1.84256 | 40 ft | 20 kts | 289° |
| 2026-05-05 18:37 | 50.77692 | -1.84462 | 41 ft | 20 kts | 283° |
| 2026-05-05 18:37 | 50.77718 | -1.84677 | 41 ft | 20 kts | 283° |
| 2026-05-05 18:37 | 50.77740 | -1.84801 | 41 ft | 0 kts | 294° |
| 2026-05-05 18:41 | 50.77740 | -1.84802 | 41 ft | 1 kts | 294° |
| 2026-05-05 18:41 | 50.77771 | -1.84894 | 41 ft | 14 kts | 298° |
| 2026-05-05 18:41 | 50.77823 | -1.85039 | 43 ft | 16 kts | 301° |
| 2026-05-05 18:41 | 50.77866 | -1.85081 | 44 ft | 11 kts | 37° |
| 2026-05-05 18:42 | 50.77873 | -1.85057 | 44 ft | 0 kts | 72° |
| 2026-05-05 18:42 | 50.77875 | -1.85046 | 44 ft | 7 kts | 73° |
| 2026-05-05 18:42 | 50.77933 | -1.84705 | 43 ft | 61 kts | 75° |
| 2026-05-05 18:42 | 50.78053 | -1.83916 | 174 ft | 78 kts | 76° |
| 2026-05-05 18:43 | 50.78156 | -1.83051 | 430 ft | 81 kts | 71° |
| 2026-05-05 18:43 | 50.78396 | -1.82318 | 715 ft | 77 kts | 28° |
| 2026-05-05 18:43 | 50.78928 | -1.82219 | 1019 ft | 77 kts | 360° |
| 2026-05-05 18:43 | 50.79458 | -1.82251 | 1307 ft | 79 kts | 357° |
| 2026-05-05 18:44 | 50.80063 | -1.82355 | 1394 ft | 95 kts | 355° |
| 2026-05-05 18:44 | 50.80750 | -1.82565 | 1439 ft | 106 kts | 351° |
| 2026-05-05 18:44 | 50.81500 | -1.82620 | 1500 ft | 111 kts | 2° |
| 2026-05-05 18:44 | 50.82300 | -1.82619 | 1505 ft | 119 kts | 2° |
| 2026-05-05 18:45 | 50.83148 | -1.82610 | 1499 ft | 124 kts | 2° |
| 2026-05-05 18:45 | 50.84018 | -1.82610 | 1500 ft | 126 kts | 2° |
| 2026-05-05 18:45 | 50.84900 | -1.82608 | 1511 ft | 126 kts | 2° |
| 2026-05-05 18:45 | 50.85760 | -1.82594 | 1589 ft | 122 kts | 2° |
| 2026-05-05 18:46 | 50.86597 | -1.82575 | 1664 ft | 119 kts | 2° |
| 2026-05-05 18:46 | 50.87435 | -1.82552 | 1689 ft | 122 kts | 2° |
| 2026-05-05 18:46 | 50.88291 | -1.82546 | 1689 ft | 124 kts | 2° |
| 2026-05-05 18:46 | 50.89140 | -1.82523 | 1690 ft | 123 kts | 7° |
| 2026-05-05 18:47 | 50.89987 | -1.82204 | 1698 ft | 125 kts | 19° |
| 2026-05-05 18:47 | 50.90789 | -1.81712 | 1704 ft | 125 kts | 21° |
| 2026-05-05 18:47 | 50.91607 | -1.81203 | 1692 ft | 124 kts | 21° |
| 2026-05-05 18:47 | 50.92399 | -1.80699 | 1692 ft | 124 kts | 21° |
| 2026-05-05 18:48 | 50.93199 | -1.80179 | 1692 ft | 124 kts | 21° |
| 2026-05-05 18:48 | 50.94004 | -1.79664 | 1689 ft | 125 kts | 21° |
| 2026-05-05 18:48 | 50.94813 | -1.79154 | 1693 ft | 125 kts | 21° |
| 2026-05-05 18:48 | 50.95622 | -1.78634 | 1699 ft | 126 kts | 21° |
| 2026-05-05 18:49 | 50.96443 | -1.78109 | 1710 ft | 128 kts | 21° |
| 2026-05-05 18:49 | 50.97272 | -1.77580 | 1701 ft | 130 kts | 21° |
| 2026-05-05 18:49 | 50.98114 | -1.77032 | 1702 ft | 132 kts | 21° |
| 2026-05-05 18:49 | 50.98953 | -1.76469 | 1691 ft | 130 kts | 24° |
| 2026-05-05 18:50 | 50.99653 | -1.75569 | 1682 ft | 131 kts | 50° |
| 2026-05-05 18:50 | 51.00099 | -1.74305 | 1695 ft | 132 kts | 59° |
| 2026-05-05 18:50 | 51.00493 | -1.72988 | 1709 ft | 132 kts | 60° |
| 2026-05-05 18:50 | 51.00844 | -1.71637 | 1691 ft | 134 kts | 69° |
| 2026-05-05 18:51 | 51.01077 | -1.70202 | 1694 ft | 134 kts | 71° |
| 2026-05-05 18:51 | 51.01303 | -1.68764 | 1698 ft | 135 kts | 72° |
| 2026-05-05 18:51 | 51.01543 | -1.67331 | 1704 ft | 134 kts | 71° |
| 2026-05-05 18:51 | 51.01774 | -1.65889 | 1701 ft | 136 kts | 71° |
| 2026-05-05 18:52 | 51.01996 | -1.64426 | 1693 ft | 137 kts | 71° |
| 2026-05-05 18:52 | 51.02228 | -1.62969 | 1690 ft | 135 kts | 71° |
| 2026-05-05 18:52 | 51.02460 | -1.61527 | 1708 ft | 135 kts | 71° |
| 2026-05-05 18:52 | 51.02688 | -1.60074 | 1697 ft | 136 kts | 71° |
| 2026-05-05 18:53 | 51.02913 | -1.58629 | 1698 ft | 136 kts | 71° |
| 2026-05-05 18:53 | 51.03140 | -1.57167 | 1701 ft | 136 kts | 71° |
| 2026-05-05 18:53 | 51.03571 | -1.55885 | 1702 ft | 130 kts | 45° |
| 2026-05-05 18:53 | 51.04206 | -1.54881 | 1694 ft | 128 kts | 41° |